Time,TemperatureF,DewpointF,PressureIn,WindDirection,WindDirectionDegrees,WindSpeedMPH,WindSpeedGustMPH,Humidity,HourlyPrecipIn,Conditions,Clouds,dailyrainin,SolarRadiationWatts/m^2,SoftwareType,DateUTC
2013-09-21 00:04:00,68.0,63.0,-100.00,SSE,155,2.0,6.0,83,0.00,,,0.00,0.000000,,2013-09-21 04:04:00,
2013-09-21 00:44:00,69.0,63.0,-100.00,SSE,154,5.0,10.0,81,0.00,,,0.00,0.000000,,2013-09-21 04:44:00,
2013-09-21 00:54:00,69.0,63.0,-100.00,SSE,154,5.0,10.0,81,0.00,,,0.00,0.000000,,2013-09-21 04:54:00,
2013-09-21 01:04:00,69.0,63.0,-100.00,SSE,154,5.0,10.0,81,0.00,,,0.00,0.000000,,2013-09-21 05:04:00,
2013-09-21 01:44:00,71.0,63.0,-100.00,SSE,165,6.0,12.0,75,0.00,,,0.00,0.000000,,2013-09-21 05:44:00,
2013-09-21 01:53:00,71.0,63.0,-100.00,SSE,165,6.0,12.0,75,0.00,,,0.00,0.000000,,2013-09-21 05:53:00,
2013-09-21 02:02:00,71.0,63.0,-100.00,SSE,165,6.0,12.0,75,0.00,,,0.00,0.000000,,2013-09-21 06:02:00,
2013-09-21 02:42:00,72.0,63.0,-100.00,South,170,7.0,14.0,73,0.00,,,-99.99,0.000000,,2013-09-21 06:42:00,
2013-09-21 02:53:00,72.0,63.0,-100.00,South,170,7.0,14.0,73,0.00,,,-99.99,0.000000,,2013-09-21 06:53:00,
2013-09-21 03:01:00,72.0,63.0,-100.00,South,170,7.0,14.0,73,0.00,,,-99.99,0.000000,,2013-09-21 07:01:00,
2013-09-21 03:42:00,71.0,63.0,-100.00,SSE,161,6.0,14.0,75,0.00,,,0.00,0.000000,,2013-09-21 07:42:00,
2013-09-21 03:52:00,71.0,63.0,-100.00,SSE,161,6.0,14.0,75,0.00,,,0.00,0.000000,,2013-09-21 07:52:00,
2013-09-21 04:03:00,71.0,63.0,-100.00,SSE,161,6.0,14.0,75,0.00,,,0.00,0.000000,,2013-09-21 08:03:00,
2013-09-21 04:42:00,71.0,63.0,-100.00,South,173,8.0,15.0,75,0.00,,,0.00,0.000000,,2013-09-21 08:42:00,
2013-09-21 04:52:00,71.0,63.0,-100.00,South,173,8.0,15.0,75,0.00,,,0.00,0.000000,,2013-09-21 08:52:00,
2013-09-21 05:02:00,71.0,63.0,-100.00,South,173,8.0,15.0,75,0.00,,,0.00,0.000000,,2013-09-21 09:02:00,
2013-09-21 05:43:00,71.0,63.0,-100.00,South,172,9.0,17.0,75,0.00,,,0.00,0.000000,,2013-09-21 09:43:00,
2013-09-21 05:54:00,71.0,63.0,-100.00,South,172,9.0,17.0,75,0.00,,,0.00,0.000000,,2013-09-21 09:54:00,
2013-09-21 06:03:00,71.0,63.0,-100.00,South,172,9.0,17.0,75,0.00,,,0.00,0.000000,,2013-09-21 10:03:00,
2013-09-21 06:42:00,67.0,64.0,-100.00,South,173,9.0,18.0,91,0.01,,,0.01,0.000000,,2013-09-21 10:42:00,
2013-09-21 06:53:00,67.0,64.0,-100.00,South,173,9.0,18.0,91,0.01,,,0.01,0.000000,,2013-09-21 10:53:00,
2013-09-21 07:03:00,67.0,64.0,-100.00,South,173,9.0,18.0,91,0.01,,,0.01,0.000000,,2013-09-21 11:03:00,
2013-09-21 07:42:00,66.0,66.0,-100.00,South,174,9.0,16.0,99,0.13,,,0.14,0.000000,,2013-09-21 11:42:00,
2013-09-21 07:52:00,66.0,66.0,-100.00,South,174,9.0,16.0,99,0.13,,,0.14,0.000000,,2013-09-21 11:52:00,
2013-09-21 08:02:00,66.0,66.0,-100.00,South,174,9.0,16.0,99,0.13,,,0.14,0.000000,,2013-09-21 12:02:00,
2013-09-21 08:42:00,68.0,68.0,-100.00,South,184,8.0,23.0,100,0.25,,,0.39,1.000000,,2013-09-21 12:42:00,
2013-09-21 08:52:00,68.0,68.0,-100.00,South,184,8.0,23.0,100,0.25,,,0.39,1.000000,,2013-09-21 12:52:00,
2013-09-21 09:02:00,68.0,68.0,-100.00,South,184,8.0,23.0,100,0.25,,,0.39,1.000000,,2013-09-21 13:02:00,
2013-09-21 09:42:00,69.0,69.0,-100.00,South,190,14.0,26.0,100,0.08,,,0.47,17.000000,,2013-09-21 13:42:00,
2013-09-21 09:53:00,69.0,69.0,-100.00,South,190,14.0,26.0,100,0.08,,,0.47,17.000000,,2013-09-21 13:53:00,
2013-09-21 10:02:00,69.0,69.0,-100.00,South,190,14.0,26.0,100,0.08,,,0.47,17.000000,,2013-09-21 14:02:00,
2013-09-21 10:42:00,68.0,68.0,-100.00,South,177,9.0,22.0,100,0.04,,,0.51,52.000000,,2013-09-21 14:42:00,
2013-09-21 10:52:00,68.0,68.0,-100.00,South,177,9.0,22.0,100,0.04,,,0.51,52.000000,,2013-09-21 14:52:00,
2013-09-21 11:02:00,68.0,68.0,-100.00,South,177,9.0,22.0,100,0.04,,,0.51,52.000000,,2013-09-21 15:02:00,
2013-09-21 11:05:00,66.0,66.0,-100.00,NW,305,6.0,19.0,100,0.59,,,1.10,42.000000,,2013-09-21 15:05:00,
2013-09-21 11:45:00,66.0,66.0,-100.00,NW,305,6.0,19.0,100,0.59,,,1.10,42.000000,,2013-09-21 15:45:00,
2013-09-21 11:55:00,66.0,66.0,-100.00,NW,305,6.0,19.0,100,0.59,,,1.10,42.000000,,2013-09-21 15:55:00,
2013-09-21 12:43:00,62.0,62.0,-100.00,North,359,9.0,17.0,100,0.57,,,1.67,28.000000,,2013-09-21 16:43:00,
2013-09-21 12:54:00,62.0,62.0,-100.00,North,359,9.0,17.0,100,0.57,,,1.67,28.000000,,2013-09-21 16:54:00,
2013-09-21 13:03:00,62.0,62.0,-100.00,North,359,9.0,17.0,100,0.57,,,1.67,28.000000,,2013-09-21 17:03:00,
2013-09-21 13:43:00,61.0,61.0,-100.00,NNE,26,3.0,18.0,100,0.34,,,2.01,45.000000,,2013-09-21 17:43:00,
2013-09-21 13:52:00,61.0,61.0,-100.00,NNE,26,3.0,18.0,100,0.34,,,2.01,45.000000,,2013-09-21 17:52:00,
2013-09-21 14:02:00,61.0,61.0,-100.00,NNE,26,3.0,18.0,100,0.34,,,2.01,45.000000,,2013-09-21 18:02:00,
2013-09-21 14:42:00,61.0,61.0,-100.00,ESE,102,2.0,12.0,100,0.22,,,2.23,80.000000,,2013-09-21 18:42:00,
2013-09-21 14:52:00,61.0,61.0,-100.00,ESE,102,2.0,12.0,100,0.22,,,2.23,80.000000,,2013-09-21 18:52:00,
2013-09-21 15:02:00,61.0,61.0,-100.00,ESE,102,2.0,12.0,100,0.22,,,2.23,80.000000,,2013-09-21 19:02:00,
2013-09-21 15:42:00,62.0,62.0,-100.00,North,5,3.0,8.0,100,0.02,,,2.25,109.000000,,2013-09-21 19:42:00,
2013-09-21 15:52:00,62.0,62.0,-100.00,North,5,3.0,8.0,100,0.02,,,2.25,109.000000,,2013-09-21 19:52:00,
2013-09-21 16:02:00,62.0,62.0,-100.00,North,5,3.0,8.0,100,0.02,,,2.25,109.000000,,2013-09-21 20:02:00,
2013-09-21 16:43:00,63.0,62.0,-100.00,North,350,4.0,8.0,98,0.00,,,2.25,217.000000,,2013-09-21 20:43:00,
2013-09-21 16:52:00,63.0,62.0,-100.00,North,350,4.0,8.0,98,0.00,,,2.25,217.000000,,2013-09-21 20:52:00,
2013-09-21 17:02:00,63.0,62.0,-100.00,North,350,4.0,8.0,98,0.00,,,2.25,217.000000,,2013-09-21 21:02:00,
2013-09-21 17:05:00,67.0,63.0,-100.00,North,356,5.0,9.0,88,0.00,,,2.25,404.000000,,2013-09-21 21:05:00,
2013-09-21 17:45:00,67.0,63.0,-100.00,North,356,5.0,9.0,88,0.00,,,2.25,404.000000,,2013-09-21 21:45:00,
2013-09-21 17:54:00,67.0,63.0,-100.00,North,356,5.0,9.0,88,0.00,,,2.25,404.000000,,2013-09-21 21:54:00,
2013-09-21 18:43:00,64.0,63.0,-100.00,North,2,4.0,8.0,97,0.00,,,2.25,183.000000,,2013-09-21 22:43:00,
2013-09-21 18:53:00,64.0,63.0,-100.00,North,2,4.0,8.0,97,0.00,,,2.25,183.000000,,2013-09-21 22:53:00,
2013-09-21 19:03:00,64.0,63.0,-100.00,North,2,4.0,8.0,97,0.00,,,2.25,183.000000,,2013-09-21 23:03:00,
2013-09-21 19:42:00,63.0,63.0,-100.00,North,8,3.0,7.0,100,0.00,,,2.25,48.000000,,2013-09-21 23:42:00,
2013-09-21 19:53:00,63.0,63.0,-100.00,North,8,3.0,7.0,100,0.00,,,2.25,48.000000,,2013-09-21 23:53:00,
2013-09-21 20:02:00,63.0,63.0,-100.00,North,8,3.0,7.0,100,0.00,,,2.25,48.000000,,2013-09-22 00:02:00,
2013-09-21 20:43:00,63.0,63.0,-100.00,North,350,3.0,6.0,100,0.01,,,2.26,19.000000,,2013-09-22 00:43:00,
2013-09-21 20:52:00,63.0,63.0,-100.00,North,350,3.0,6.0,100,0.01,,,2.26,19.000000,,2013-09-22 00:52:00,
2013-09-21 21:02:00,63.0,63.0,-100.00,North,350,3.0,6.0,100,0.01,,,2.26,19.000000,,2013-09-22 01:02:00,
2013-09-21 21:42:00,62.0,62.0,-100.00,NNE,13,6.0,14.0,100,0.00,,,2.26,0.000000,,2013-09-22 01:42:00,
2013-09-21 21:52:00,62.0,62.0,-100.00,NNE,13,6.0,14.0,100,0.00,,,2.26,0.000000,,2013-09-22 01:52:00,
2013-09-21 22:02:00,62.0,62.0,-100.00,NNE,13,6.0,14.0,100,0.00,,,2.26,0.000000,,2013-09-22 02:02:00,
2013-09-21 22:42:00,61.0,61.0,-100.00,North,355,7.0,15.0,99,0.00,,,2.26,0.000000,,2013-09-22 02:42:00,
2013-09-21 22:52:00,61.0,61.0,-100.00,North,355,7.0,15.0,99,0.00,,,2.26,0.000000,,2013-09-22 02:52:00,
2013-09-21 23:02:00,61.0,61.0,-100.00,North,355,7.0,15.0,99,0.00,,,2.26,0.000000,,2013-09-22 03:02:00,
2013-09-21 23:45:00,59.0,58.0,-100.00,North,11,4.0,14.0,97,0.00,,,2.26,0.000000,,2013-09-22 03:45:00,
2013-09-21 23:54:00,59.0,58.0,-100.00,North,11,4.0,14.0,97,0.00,,,2.26,0.000000,,2013-09-22 03:54:00,